Terminal Aerodrome Forecast
Issued by NWS

Home | Current Version | Previous Version | Text Only | Print | Product List | Glossary On
Versions: 1 2 3 4 5 6 7 8 9 10 11 12 13
000
FTUS45 KREV 291757
TAFTVL
TAF
KTVL 291757Z 2918/3018 03006KT P6SM SCT070 BKN140
     FM300100 20012G22KT P6SM BKN060 BKN120
     FM300900 20012G20KT 5SM -SHRA BKN030 OVC050 WS020/30045KT
     FM301200 20016G28KT 1 1/2SM -RASN OVC008
     FM301600 19011G20KT P6SM FEW060 BKN100=

USA.gov is the U.S. government's official web portal to all federal, state and local government web resources and services.